createdAt,value
2018-09-28T00:02:00.401Z,15.19
2018-09-28T00:04:30.531Z,15.15
2018-09-28T00:07:00.571Z,15.11
2018-09-28T00:09:30.673Z,15.08
2018-09-28T00:12:00.520Z,15.09
2018-09-28T00:14:32.522Z,15.04
2018-09-28T00:17:02.959Z,15.01
2018-09-28T00:19:33.387Z,14.99
2018-09-28T00:22:03.879Z,14.98
2018-09-28T00:24:35.204Z,14.93
2018-09-28T00:27:05.446Z,14.89
2018-09-28T00:29:35.732Z,14.85
2018-09-28T00:32:05.811Z,14.85
2018-09-28T00:34:35.972Z,14.79
2018-09-28T00:37:06.521Z,14.77
2018-09-28T00:39:36.735Z,14.66
2018-09-28T00:42:06.649Z,14.62
2018-09-28T00:44:36.811Z,14.61
2018-09-28T00:47:07.470Z,14.52
2018-09-28T00:49:37.562Z,14.48
2018-09-28T00:59:10.765Z,14.35
2018-09-28T01:01:40.889Z,14.32
2018-09-28T01:04:10.775Z,14.28
2018-09-28T01:06:41.802Z,14.26
2018-09-28T01:09:15.416Z,14.20
2018-09-28T01:11:45.882Z,14.19
2018-09-28T01:14:16.042Z,14.11
2018-09-28T01:16:46.183Z,14.08
2018-09-28T01:19:17.853Z,14.11
2018-09-28T01:21:47.986Z,14.08
2018-09-28T01:24:19.091Z,14.03
2018-09-28T01:26:49.603Z,14.02
2018-09-28T01:29:20.259Z,13.93
2018-09-28T01:31:51.441Z,13.97
2018-09-28T01:34:22.451Z,13.98
2018-09-28T01:36:52.362Z,13.93
2018-09-28T01:39:22.558Z,13.91
2018-09-28T01:41:52.789Z,13.90
2018-09-28T01:44:23.029Z,13.86
2018-09-28T01:46:54.209Z,13.82
2018-09-28T01:49:25.284Z,13.80
2018-09-28T01:51:55.385Z,13.82
2018-09-28T01:54:26.282Z,13.70
2018-09-28T01:56:56.344Z,13.68
2018-09-28T01:59:26.652Z,13.71
2018-09-28T02:01:56.665Z,13.72
2018-09-28T02:04:26.966Z,13.72
2018-09-28T02:06:56.906Z,13.68
2018-09-28T02:09:26.877Z,13.64
2018-09-28T02:11:56.959Z,13.60
2018-09-28T02:14:27.026Z,13.57
2018-09-28T02:16:57.170Z,13.55
2018-09-28T02:19:27.145Z,13.52
2018-09-28T02:21:57.202Z,13.57
2018-09-28T02:24:27.062Z,13.56
2018-09-28T02:26:57.209Z,13.54
2018-09-28T02:29:27.406Z,13.50
2018-09-28T02:31:57.475Z,13.43
2018-09-28T02:34:27.724Z,13.46
2018-09-28T02:36:58.547Z,13.44
2018-09-28T02:39:29.359Z,13.40
2018-09-28T02:42:01.447Z,13.40
2018-09-28T02:44:32.726Z,13.36
2018-09-28T02:47:04.010Z,13.31
2018-09-28T02:49:34.054Z,13.24
2018-09-28T02:52:04.075Z,13.24
2018-09-28T02:54:34.983Z,13.20
2018-09-28T02:57:05.242Z,13.13
2018-09-28T02:59:35.348Z,13.08
2018-09-28T03:02:06.326Z,13.11
2018-09-28T03:04:36.645Z,13.07
2018-09-28T03:07:07.522Z,13.06
2018-09-28T03:09:37.941Z,13.08
2018-09-28T03:12:08.645Z,13.04
2018-09-28T03:14:39.329Z,13.00
2018-09-28T03:17:10.625Z,12.99
2018-09-28T03:19:41.050Z,12.99
2018-09-28T03:22:12.748Z,12.98
2018-09-28T03:24:43.523Z,12.98
2018-09-28T03:27:14.555Z,12.97
2018-09-28T03:29:44.853Z,12.94
2018-09-28T03:32:15.349Z,12.95
2018-09-28T03:34:45.754Z,12.92
2018-09-28T03:37:15.760Z,12.89
2018-09-28T03:39:46.185Z,12.80
2018-09-28T03:42:17.097Z,12.82
2018-09-28T03:44:49.026Z,12.81
2018-09-28T03:47:20.205Z,12.79
2018-09-28T03:49:50.327Z,12.77
2018-09-28T03:52:20.496Z,12.79
2018-09-28T03:54:50.973Z,12.78
2018-09-28T03:57:20.664Z,12.75
2018-09-28T03:59:51.262Z,12.73
2018-09-28T04:02:22.791Z,12.73
2018-09-28T04:04:54.522Z,12.69
2018-09-28T04:07:24.781Z,12.66
2018-09-28T04:09:55.819Z,12.70
2018-09-28T04:12:27.609Z,12.69
2018-09-28T04:14:58.891Z,12.67
2018-09-28T04:17:29.816Z,12.65
2018-09-28T04:20:00.197Z,12.62
2018-09-28T04:22:30.365Z,12.64
2018-09-28T04:25:01.101Z,12.58
2018-09-28T04:27:32.137Z,12.58
2018-09-28T04:30:02.179Z,12.51
2018-09-28T04:32:32.855Z,12.53
2018-09-28T04:35:03.042Z,12.55
2018-09-28T04:37:34.050Z,12.51
2018-09-28T04:40:04.559Z,12.51
2018-09-28T04:42:35.093Z,12.50
2018-09-28T04:45:05.504Z,12.46
2018-09-28T04:47:36.310Z,12.42
2018-09-28T04:50:06.631Z,12.43
2018-09-28T04:52:37.285Z,12.42
2018-09-28T04:55:07.614Z,12.46
2018-09-28T04:57:38.462Z,12.43
2018-09-28T05:00:09.694Z,12.48
2018-09-28T05:02:41.030Z,12.50
2018-09-28T05:05:11.247Z,12.56
2018-09-28T05:07:41.559Z,12.60
2018-09-28T05:10:11.965Z,12.62
2018-09-28T05:12:44.043Z,12.66
2018-09-28T05:15:14.835Z,12.67
2018-09-28T05:17:45.061Z,12.70
2018-09-28T05:20:15.543Z,12.77
2018-09-28T05:22:46.774Z,12.79
2018-09-28T05:25:17.946Z,12.80
2018-09-28T05:27:48.285Z,12.88
2018-09-28T05:30:19.900Z,12.93
2018-09-28T05:32:52.269Z,12.94
2018-09-28T05:42:25.790Z,13.03
2018-09-28T05:44:57.192Z,13.06
2018-09-28T05:47:27.423Z,13.11
2018-09-28T05:49:57.760Z,13.12
2018-09-28T05:52:29.663Z,13.18
2018-09-28T05:55:00.244Z,13.23
2018-09-28T05:57:30.605Z,13.27
2018-09-28T06:00:06.301Z,13.31
2018-09-28T06:02:41.541Z,13.36
2018-09-28T06:05:16.613Z,13.37
2018-09-28T06:07:46.708Z,13.43
2018-09-28T06:10:17.422Z,13.44
2018-09-28T06:12:47.708Z,13.49
2018-09-28T06:15:17.862Z,13.53
2018-09-28T06:17:48.916Z,13.57
2018-09-28T06:20:19.075Z,13.62
2018-09-28T06:22:49.433Z,13.64
2018-09-28T06:25:20.456Z,13.66
2018-09-28T06:27:51.240Z,13.73
2018-09-28T06:30:21.989Z,13.80
2018-09-28T06:32:53.714Z,13.89
2018-09-28T06:35:24.729Z,13.95
2018-09-28T06:37:54.364Z,14.09
2018-09-28T06:40:24.896Z,14.22
2018-09-28T06:42:56.637Z,14.31
2018-09-28T06:45:26.884Z,14.34
2018-09-28T06:47:57.548Z,14.42
2018-09-28T06:50:27.353Z,14.45
2018-09-28T06:52:57.806Z,14.45
2018-09-28T06:55:27.913Z,14.48
2018-09-28T06:57:57.831Z,14.52
2018-09-28T07:00:27.909Z,14.55
2018-09-28T07:02:58.272Z,14.63
2018-09-28T07:05:29.772Z,14.78
2018-09-28T07:08:00.894Z,15.01
2018-09-28T07:10:31.552Z,15.31
2018-09-28T07:13:02.178Z,15.33
2018-09-28T07:15:32.889Z,15.35
2018-09-28T07:18:03.318Z,15.51
2018-09-28T07:20:34.374Z,15.40
2018-09-28T07:23:06.315Z,15.61
2018-09-28T07:25:36.495Z,15.85
2018-09-28T07:28:07.765Z,15.76
2018-09-28T07:30:38.148Z,15.79
2018-09-28T07:33:10.634Z,15.96
2018-09-28T07:35:41.364Z,16.27
2018-09-28T07:38:11.608Z,16.12
2018-09-28T07:40:44.736Z,16.32
2018-09-28T07:43:14.666Z,16.34
2018-09-28T07:45:44.739Z,16.66
2018-09-28T07:48:14.996Z,16.59
2018-09-28T07:50:44.939Z,16.81
2018-09-28T07:53:15.716Z,16.76
2018-09-28T07:55:45.802Z,16.89
2018-09-28T07:58:15.605Z,16.54
2018-09-28T08:00:45.642Z,17.03
2018-09-28T08:03:15.578Z,17.16
2018-09-28T08:05:45.579Z,17.22
2018-09-28T08:08:16.125Z,17.37
2018-09-28T08:10:45.760Z,17.83
2018-09-28T08:13:15.658Z,18.00
2018-09-28T08:15:45.674Z,17.97
2018-09-28T08:18:15.484Z,17.45
2018-09-28T08:20:45.456Z,18.30
2018-09-28T08:23:15.906Z,18.29
2018-09-28T08:25:45.963Z,18.09
2018-09-28T08:28:15.921Z,17.42
2018-09-28T08:30:46.645Z,17.67
2018-09-28T08:33:16.819Z,18.27
2018-09-28T08:35:46.774Z,18.63
2018-09-28T08:38:16.695Z,18.62
2018-09-28T08:40:46.884Z,18.38
2018-09-28T08:43:16.876Z,18.58
2018-09-28T08:45:47.007Z,18.06
2018-09-28T08:48:17.349Z,19.46
2018-09-28T08:50:47.303Z,19.13
2018-09-28T08:53:17.126Z,19.09
2018-09-28T08:55:48.140Z,19.38
2018-09-28T08:58:18.032Z,19.27
2018-09-28T09:00:48.163Z,19.82
2018-09-28T09:03:18.547Z,19.69
2018-09-28T09:05:48.666Z,18.61
2018-09-28T09:08:18.463Z,19.45
2018-09-28T09:10:48.674Z,19.26
2018-09-28T09:13:18.741Z,18.67
2018-09-28T09:15:48.816Z,18.92
2018-09-28T09:18:18.845Z,18.12
2018-09-28T09:20:49.161Z,17.82
2018-09-28T09:23:19.126Z,17.54
2018-09-28T09:25:49.156Z,17.45
2018-09-28T09:28:19.322Z,17.28
2018-09-28T09:30:49.477Z,17.21
2018-09-28T09:33:19.394Z,17.71
2018-09-28T09:35:49.504Z,16.90
2018-09-28T09:38:19.742Z,17.02
2018-09-28T09:40:50.146Z,17.12
2018-09-28T09:43:21.508Z,17.15
2018-09-28T09:45:52.425Z,17.66
2018-09-28T09:48:22.239Z,18.18
2018-09-28T09:50:52.604Z,18.23
2018-09-28T09:53:24.199Z,17.68
2018-09-28T09:55:55.147Z,18.40
2018-09-28T09:58:26.144Z,19.02
2018-09-28T10:01:02.977Z,19.25
2018-09-28T10:03:37.854Z,20.63
2018-09-28T10:06:08.741Z,19.46
2018-09-28T10:08:38.992Z,19.75
2018-09-28T10:11:09.408Z,20.27
2018-09-28T10:13:40.127Z,20.04
2018-09-28T10:16:10.037Z,20.32
2018-09-28T10:18:40.212Z,20.06
2018-09-28T10:21:10.367Z,20.42
2018-09-28T10:23:40.842Z,20.53
2018-09-28T10:26:10.880Z,20.14
2018-09-28T10:28:41.148Z,20.02
2018-09-28T10:31:10.983Z,20.49
2018-09-28T10:33:41.099Z,21.17
2018-09-28T10:36:10.757Z,20.28
2018-09-28T10:38:40.690Z,20.69
2018-09-28T10:41:10.792Z,19.61
2018-09-28T10:43:41.696Z,19.34
2018-09-28T10:46:11.504Z,18.78
2018-09-28T10:48:42.089Z,19.15
2018-09-28T10:51:13.483Z,18.82
2018-09-28T10:53:44.651Z,18.24
2018-09-28T10:56:14.648Z,17.88
2018-09-28T10:58:45.464Z,18.01
2018-09-28T11:01:15.546Z,18.08
2018-09-28T11:03:45.538Z,18.09
2018-09-28T11:06:15.478Z,17.76
2018-09-28T11:08:45.510Z,17.56
2018-09-28T11:11:16.712Z,17.78
2018-09-28T11:13:46.876Z,18.03
2018-09-28T11:16:16.764Z,17.88
2018-09-28T11:18:47.104Z,17.92
2018-09-28T11:21:17.335Z,17.80
2018-09-28T11:23:47.298Z,17.72
2018-09-28T11:26:18.188Z,17.76
2018-09-28T11:28:48.316Z,17.45
2018-09-28T11:31:18.841Z,17.65
2018-09-28T11:33:48.467Z,17.60
2018-09-28T11:36:18.263Z,17.81
2018-09-28T11:38:48.169Z,17.50
2018-09-28T11:41:19.104Z,17.58
2018-09-28T11:43:49.283Z,17.31
2018-09-28T11:46:19.143Z,17.45
2018-09-28T11:48:48.863Z,17.46
2018-09-28T11:51:20.262Z,17.38
2018-09-28T11:53:50.246Z,17.00
2018-09-28T11:56:20.029Z,17.01
2018-09-28T11:58:51.107Z,16.94
2018-09-28T12:01:21.432Z,17.09
2018-09-28T12:03:51.135Z,17.32
2018-09-28T12:06:21.211Z,16.93
2018-09-28T12:08:51.210Z,17.08
2018-09-28T12:11:20.874Z,16.95
2018-09-28T12:13:50.800Z,16.93
2018-09-28T12:16:20.633Z,17.17
2018-09-28T12:18:50.490Z,17.14
2018-09-28T12:21:20.433Z,17.16
2018-09-28T12:23:50.118Z,17.10
2018-09-28T12:26:19.721Z,16.68
2018-09-28T12:28:49.076Z,16.73
2018-09-28T12:31:20.552Z,16.64
2018-09-28T12:33:49.916Z,16.53
2018-09-28T12:36:19.958Z,16.58
2018-09-28T12:38:49.786Z,16.52
2018-09-28T12:41:20.588Z,16.50
2018-09-28T12:43:50.961Z,16.48
2018-09-28T12:46:21.084Z,16.36
2018-09-28T12:48:52.180Z,16.27
2018-09-28T12:51:22.943Z,16.16
2018-09-28T12:53:53.607Z,16.26
2018-09-28T12:56:23.616Z,16.18
2018-09-28T12:58:53.500Z,16.18
2018-09-28T13:01:23.221Z,16.20
2018-09-28T13:03:53.214Z,16.25
2018-09-28T13:06:23.365Z,16.33
2018-09-28T13:08:54.238Z,16.45
2018-09-28T13:11:24.076Z,16.33
2018-09-28T13:13:53.884Z,16.30
2018-09-28T13:16:24.394Z,16.25
2018-09-28T13:18:54.436Z,16.20
2018-09-28T13:21:26.100Z,16.07
2018-09-28T13:23:56.504Z,16.22
2018-09-28T13:26:26.498Z,16.13
2018-09-28T13:28:56.444Z,16.19
2018-09-28T13:31:27.102Z,16.23
2018-09-28T13:33:57.294Z,16.29
2018-09-28T13:36:27.377Z,16.40
2018-09-28T13:38:57.907Z,16.42
2018-09-28T13:41:27.242Z,16.44
2018-09-28T13:43:57.638Z,16.45
2018-09-28T13:46:28.393Z,16.49
2018-09-28T13:48:57.928Z,16.24
2018-09-28T13:51:27.223Z,16.12
2018-09-28T13:53:57.331Z,15.99
2018-09-28T13:56:27.800Z,15.87
2018-09-28T13:58:59.380Z,16.01
2018-09-28T14:01:29.532Z,15.97
2018-09-28T14:03:59.325Z,15.99
2018-09-28T14:06:29.176Z,15.95
2018-09-28T14:08:58.813Z,15.97
2018-09-28T14:11:29.488Z,15.82
2018-09-28T14:13:59.944Z,15.82
2018-09-28T14:16:29.710Z,15.62
2018-09-28T14:18:59.826Z,15.59
2018-09-28T14:21:30.150Z,15.66
2018-09-28T14:24:00.038Z,15.78
2018-09-28T14:26:30.159Z,15.83
2018-09-28T14:29:00.041Z,15.75
2018-09-28T14:31:29.757Z,15.59
2018-09-28T14:33:59.336Z,15.46
2018-09-28T14:36:29.113Z,15.37
2018-09-28T14:38:58.936Z,15.32
2018-09-28T14:41:29.161Z,15.29
2018-09-28T14:43:59.679Z,15.32
2018-09-28T14:46:29.851Z,15.26
2018-09-28T14:48:59.703Z,15.31
2018-09-28T14:51:30.727Z,15.31
2018-09-28T14:54:00.750Z,15.29
2018-09-28T14:56:30.600Z,15.36
2018-09-28T14:59:00.810Z,15.30
2018-09-28T15:01:30.683Z,15.23
2018-09-28T15:03:59.836Z,15.26
2018-09-28T15:06:29.841Z,15.25
2018-09-28T15:08:59.136Z,15.20
2018-09-28T15:11:29.527Z,15.15
2018-09-28T15:13:59.277Z,15.11
2018-09-28T15:16:28.695Z,15.04
2018-09-28T15:18:58.575Z,15.03
2018-09-28T15:21:29.008Z,15.03
2018-09-28T15:23:58.902Z,15.03
2018-09-28T15:26:28.691Z,14.98
2018-09-28T15:28:58.646Z,14.94
2018-09-28T15:31:28.560Z,15.00
2018-09-28T15:33:58.539Z,15.03
2018-09-28T15:36:28.848Z,14.98
2018-09-28T15:38:58.733Z,14.96
2018-09-28T15:41:29.837Z,14.88
2018-09-28T15:44:00.407Z,14.86
2018-09-28T15:46:30.305Z,14.75
2018-09-28T15:49:01.148Z,14.75
2018-09-28T15:51:30.837Z,14.68
2018-09-28T15:54:01.233Z,14.69
2018-09-28T15:56:31.066Z,14.67
2018-09-28T15:59:00.502Z,14.66
2018-09-28T16:01:30.931Z,14.54
2018-09-28T16:04:00.861Z,14.54
2018-09-28T16:06:30.965Z,14.47
2018-09-28T16:09:00.890Z,14.47
2018-09-28T16:11:30.721Z,14.42
2018-09-28T16:14:00.660Z,14.40
2018-09-28T16:16:30.733Z,14.41
2018-09-28T16:19:00.863Z,14.33
2018-09-28T16:21:30.815Z,14.35
2018-09-28T16:24:00.816Z,14.29
2018-09-28T16:26:30.066Z,14.23
2018-09-28T16:28:58.778Z,14.27
2018-09-28T16:31:28.439Z,14.19
2018-09-28T16:33:58.204Z,14.12
2018-09-28T16:36:28.137Z,14.10
2018-09-28T16:38:58.030Z,14.04
2018-09-28T16:41:28.101Z,13.98
2018-09-28T16:43:58.211Z,13.95
2018-09-28T16:46:28.626Z,13.88
2018-09-28T16:48:58.568Z,13.90
2018-09-28T16:51:28.503Z,13.83
2018-09-28T16:53:59.175Z,13.75
2018-09-28T16:56:30.033Z,13.72
2018-09-28T16:58:59.765Z,13.67
2018-09-28T17:01:29.665Z,13.61
2018-09-28T17:03:59.631Z,13.58
2018-09-28T17:06:30.377Z,13.55
2018-09-28T17:09:00.659Z,13.53
2018-09-28T17:11:30.803Z,13.48
2018-09-28T17:14:00.509Z,13.43
2018-09-28T17:16:31.802Z,13.43
2018-09-28T17:19:02.653Z,13.38
2018-09-28T17:21:32.660Z,13.39
2018-09-28T17:24:02.650Z,13.28
2018-09-28T17:26:32.967Z,13.25
2018-09-28T17:29:02.599Z,13.22
2018-09-28T17:31:32.999Z,13.16
2018-09-28T17:34:02.741Z,13.15
2018-09-28T17:38:02.506Z,13.08
2018-09-28T17:40:32.558Z,13.02
2018-09-28T17:43:02.505Z,13.03
2018-09-28T17:45:33.024Z,12.97
2018-09-28T17:48:02.965Z,13.02
2018-09-28T17:50:32.609Z,13.00
2018-09-28T17:53:02.566Z,12.96
2018-09-28T17:55:32.216Z,12.92
2018-09-28T17:58:01.148Z,12.85
2018-09-28T18:00:30.602Z,12.84
2018-09-28T18:03:00.363Z,12.81
2018-09-28T18:05:30.044Z,12.79
2018-09-28T18:08:00.175Z,12.81
2018-09-28T18:10:30.102Z,12.77
2018-09-28T18:12:59.578Z,12.75
2018-09-28T18:15:29.596Z,12.75
2018-09-28T18:17:58.143Z,12.71
2018-09-28T18:20:26.819Z,12.67
2018-09-28T18:22:56.856Z,12.63
2018-09-28T18:25:26.849Z,12.57
2018-09-28T18:27:56.126Z,12.54
2018-09-28T18:30:25.450Z,12.56
2018-09-28T18:32:55.320Z,12.54
2018-09-28T18:35:23.723Z,12.50
2018-09-28T18:37:54.086Z,12.44
2018-09-28T18:40:22.879Z,12.43
2018-09-28T18:42:52.773Z,12.40
2018-09-28T18:45:21.154Z,12.34
2018-09-28T18:47:51.497Z,12.35
2018-09-28T18:50:20.857Z,12.34
2018-09-28T18:52:51.072Z,12.35
2018-09-28T18:55:20.654Z,12.30
2018-09-28T18:57:49.918Z,12.27
2018-09-28T19:00:18.762Z,12.26
2018-09-28T19:02:48.352Z,12.25
2018-09-28T19:05:17.734Z,12.26
2018-09-28T19:07:47.956Z,12.19
2018-09-28T19:10:16.951Z,12.22
2018-09-28T19:12:46.497Z,12.20
2018-09-28T19:15:16.272Z,12.18
2018-09-28T19:17:45.640Z,12.16
2018-09-28T19:20:14.936Z,12.16
2018-09-28T19:22:43.660Z,12.20
2018-09-28T19:25:14.118Z,12.20
2018-09-28T19:27:43.242Z,12.18
2018-09-28T19:30:13.985Z,12.19
2018-09-28T19:32:43.862Z,12.22
2018-09-28T19:35:15.342Z,12.19
2018-09-28T19:37:44.488Z,12.15
2018-09-28T19:40:13.870Z,12.17
2018-09-28T19:42:43.320Z,12.18
2018-09-28T19:45:14.202Z,12.16
2018-09-28T19:47:44.478Z,12.15
2018-09-28T19:50:13.533Z,12.09
2018-09-28T19:52:43.954Z,12.11
2018-09-28T19:55:14.085Z,12.08
2018-09-28T19:57:44.387Z,12.07
2018-09-28T20:00:13.213Z,12.04
2018-09-28T20:02:43.804Z,12.03
2018-09-28T20:05:13.731Z,12.02
2018-09-28T20:07:43.796Z,12.02
2018-09-28T20:10:13.673Z,11.95
2018-09-28T20:12:42.493Z,11.95
2018-09-28T20:15:11.759Z,11.92
2018-09-28T20:17:40.604Z,11.88
2018-09-28T20:20:10.673Z,11.86
2018-09-28T20:22:39.684Z,11.83
2018-09-28T20:25:09.282Z,11.84
2018-09-28T20:27:38.559Z,11.78
2018-09-28T20:30:08.475Z,11.76
2018-09-28T20:32:38.409Z,11.77
2018-09-28T20:35:08.143Z,11.75
2018-09-28T20:37:37.454Z,11.75
2018-09-28T20:40:07.190Z,11.73
2018-09-28T20:42:38.653Z,11.75
2018-09-28T20:45:08.691Z,11.71
2018-09-28T20:47:39.227Z,11.73
2018-09-28T20:50:10.470Z,11.75
2018-09-28T20:52:39.821Z,11.66
2018-09-28T20:55:10.622Z,11.67
2018-09-28T20:57:40.123Z,11.56
2018-09-28T21:00:09.135Z,11.49
2018-09-28T21:02:38.262Z,11.53
2018-09-28T21:05:08.822Z,11.39
2018-09-28T21:07:38.493Z,11.41
2018-09-28T21:10:07.877Z,11.36
2018-09-28T21:12:37.080Z,11.31
2018-09-28T21:15:07.621Z,11.28
2018-09-28T21:17:36.925Z,11.19
2018-09-28T21:20:07.504Z,11.12
2018-09-28T21:22:38.480Z,11.14
2018-09-28T21:25:10.032Z,11.16
2018-09-28T21:27:40.128Z,11.06
2018-09-28T21:30:09.434Z,11.00
2018-09-28T21:32:40.168Z,11.07
2018-09-28T21:35:09.793Z,11.01
2018-09-28T21:37:40.632Z,10.94
2018-09-28T21:40:10.428Z,10.94
2018-09-28T21:42:41.594Z,10.84
2018-09-28T21:45:11.349Z,10.85
2018-09-28T21:47:41.438Z,10.76
2018-09-28T21:50:11.905Z,10.73
2018-09-28T21:52:41.468Z,10.54
2018-09-28T21:55:11.108Z,10.53
2018-09-28T21:57:40.192Z,10.48
2018-09-28T22:00:09.422Z,10.38
2018-09-28T22:02:39.379Z,10.40
2018-09-28T22:05:09.793Z,10.46
2018-09-28T22:07:39.505Z,10.48
2018-09-28T22:10:08.770Z,10.34
2018-09-28T22:12:38.727Z,10.32
2018-09-28T22:15:08.820Z,10.38
2018-09-28T22:17:38.615Z,10.33
2018-09-28T22:20:08.922Z,10.28
2018-09-28T22:22:38.146Z,10.22
2018-09-28T22:25:07.589Z,10.21
2018-09-28T22:27:37.545Z,10.21
2018-09-28T22:30:07.827Z,10.25
2018-09-28T22:32:38.219Z,10.23
2018-09-28T22:35:09.392Z,10.16
2018-09-28T22:37:41.139Z,10.13
2018-09-28T22:40:11.897Z,10.07
2018-09-28T22:42:44.693Z,10.03
2018-09-28T22:45:14.475Z,10.02
2018-09-28T22:47:43.720Z,9.92
2018-09-28T22:50:14.853Z,9.92
2018-09-28T22:52:44.059Z,9.81
2018-09-28T22:55:13.763Z,9.89
2018-09-28T22:57:44.335Z,9.79
2018-09-28T23:00:14.441Z,9.78
2018-09-28T23:02:44.678Z,9.78
2018-09-28T23:05:14.030Z,9.82
2018-09-28T23:07:43.272Z,9.77
2018-09-28T23:10:14.254Z,9.76
2018-09-28T23:12:43.333Z,9.69
2018-09-28T23:15:12.919Z,9.76
2018-09-28T23:17:45.943Z,9.74
2018-09-28T23:20:17.208Z,9.60
2018-09-28T23:22:46.807Z,9.67
2018-09-28T23:25:17.030Z,9.54
2018-09-28T23:27:46.322Z,9.58
2018-09-28T23:30:16.340Z,9.46
2018-09-28T23:32:45.852Z,9.45
2018-09-28T23:35:16.028Z,9.48
2018-09-28T23:37:45.619Z,9.48
2018-09-28T23:40:15.275Z,9.40
2018-09-28T23:42:45.155Z,9.46
2018-09-28T23:45:14.496Z,9.33
2018-09-28T23:47:44.596Z,9.29
2018-09-28T23:50:13.645Z,9.38
2018-09-28T23:52:44.623Z,9.30
2018-09-28T23:55:15.561Z,9.31
2018-09-28T23:57:46.175Z,9.28
